Terminal Aerodrome Forecast
Issued by NWS St Louis, MO

Home | Current Version | Previous Version | Text Only | Print | Product List | Glossary On
Versions: 1 2 3 4 5 6 7 8 9 10 11 12 13 14 15 16 17 18 19 20 21 22 23
497
FTUS43 KLSX 262331
TAFCOU
TAF
KCOU 262331Z 2700/2724 29005KT P6SM BKN060
     FM270400 01004KT P6SM SCT090
     FM270900 VRB03KT 3SM BR SCT020
     FM271400 10005KT P6SM BKN035
     FM272100 13009KT P6SM BKN045
     FM272200 13008KT 2SM TSRA BKN035CB=

USA.gov is the U.S. government's official web portal to all federal, state and local government web resources and services.